createdAt,value
2022-10-10T00:00:26.018Z,102499.90
2022-10-10T00:01:48.957Z,102497.55
2022-10-10T00:02:52.102Z,102497.83
2022-10-10T00:03:56.000Z,102496.00
2022-10-10T00:04:59.018Z,102497.49
2022-10-10T00:06:02.127Z,102493.02
2022-10-10T00:07:05.284Z,102494.53
2022-10-10T00:08:08.704Z,102493.92
2022-10-10T00:09:11.853Z,102489.34
2022-10-10T00:10:14.835Z,102486.30
2022-10-10T00:11:20.164Z,102488.83
2022-10-10T00:12:23.188Z,102487.90
2022-10-10T00:13:26.247Z,102487.51
2022-10-10T00:14:32.489Z,102484.27
2022-10-10T00:15:35.680Z,102486.11
2022-10-10T00:16:38.678Z,102486.23
2022-10-10T00:17:43.774Z,102486.57
2022-10-10T00:18:46.782Z,102486.54
2022-10-10T00:19:49.834Z,102484.54
2022-10-10T00:20:53.581Z,102481.38
2022-10-10T00:21:56.522Z,102476.73
2022-10-10T00:22:59.514Z,102476.70
2022-10-10T00:24:02.642Z,102478.54
2022-10-10T00:25:07.572Z,102480.42
2022-10-10T00:26:14.924Z,102479.21
2022-10-10T00:27:21.493Z,102475.55
2022-10-10T00:28:24.875Z,102474.16
2022-10-10T00:29:28.123Z,102472.64
2022-10-10T00:30:31.831Z,102474.44
2022-10-10T00:31:34.715Z,102482.52
2022-10-10T00:32:37.757Z,102479.91
2022-10-10T00:33:40.663Z,102475.98
2022-10-10T00:34:43.863Z,102476.99
2022-10-10T00:35:46.860Z,102483.71
2022-10-10T00:36:50.252Z,102479.94
2022-10-10T00:37:53.426Z,102483.80
2022-10-10T00:38:56.384Z,102484.13
2022-10-10T00:39:59.417Z,102483.77
2022-10-10T00:41:02.849Z,102485.02
2022-10-10T00:42:05.885Z,102484.89
2022-10-10T00:43:10.407Z,102483.55
2022-10-10T00:44:15.595Z,102487.91
2022-10-10T00:45:39.311Z,102486.05
2022-10-10T00:46:42.515Z,102485.50
2022-10-10T00:47:45.892Z,102487.85
2022-10-10T00:48:48.996Z,102486.36
2022-10-10T00:49:51.979Z,102486.92
2022-10-10T00:51:05.126Z,102488.48
2022-10-10T00:52:10.978Z,102490.34
2022-10-10T00:53:19.520Z,102489.89
2022-10-10T00:54:24.579Z,102487.79
2022-10-10T00:55:28.003Z,102484.63
2022-10-10T00:56:41.733Z,102484.62
2022-10-10T00:57:45.139Z,102487.54
2022-10-10T00:58:52.890Z,102487.93
2022-10-10T00:59:56.509Z,102488.52
2022-10-10T01:00:59.603Z,102483.88
2022-10-10T01:02:02.847Z,102481.48
2022-10-10T01:03:06.081Z,102480.48
2022-10-10T01:04:38.693Z,102477.14
2022-10-10T01:05:46.057Z,102481.98
2022-10-10T01:06:48.980Z,102479.90
2022-10-10T01:07:52.470Z,102479.80
2022-10-10T01:08:56.743Z,102481.50
2022-10-10T01:10:05.231Z,102476.53
2022-10-10T01:11:17.355Z,102474.57
2022-10-10T01:12:23.110Z,102474.85
2022-10-10T01:13:36.326Z,102472.47
2022-10-10T01:14:54.340Z,102469.83
2022-10-10T01:16:34.637Z,102472.79
2022-10-10T01:17:46.755Z,102471.14
2022-10-10T01:18:55.715Z,102472.65
2022-10-10T01:20:55.838Z,102472.68
2022-10-10T01:22:35.553Z,102469.65
2022-10-10T01:23:54.454Z,102465.55
2022-10-10T01:25:19.092Z,102466.84
2022-10-10T01:26:31.353Z,102466.27
2022-10-10T01:27:51.496Z,102464.49
2022-10-10T01:29:00.173Z,102464.38
2022-10-10T01:30:09.888Z,102467.84
2022-10-10T01:31:15.920Z,102463.52
2022-10-10T01:32:44.182Z,102458.55
2022-10-10T01:33:55.076Z,102456.88
2022-10-10T01:35:17.876Z,102455.84
2022-10-10T01:36:58.576Z,102456.94
2022-10-10T01:38:22.628Z,102449.86
2022-10-10T01:39:49.792Z,102452.11
2022-10-10T01:41:09.287Z,102456.29
2022-10-10T01:42:23.470Z,102455.06
2022-10-10T01:43:26.808Z,102453.50
2022-10-10T01:44:29.750Z,102451.27
2022-10-10T01:45:32.854Z,102451.03
2022-10-10T01:46:35.877Z,102449.41
2022-10-10T01:47:39.239Z,102448.80
2022-10-10T01:48:45.080Z,102449.92
2022-10-10T01:49:51.492Z,102449.61
2022-10-10T01:51:26.204Z,102448.40
2022-10-10T01:52:56.244Z,102444.89
2022-10-10T01:54:21.363Z,102444.51
2022-10-10T01:55:50.180Z,102445.06
2022-10-10T01:57:02.301Z,102444.33
2022-10-10T01:58:26.875Z,102443.54
2022-10-10T02:00:03.628Z,102441.05
2022-10-10T02:01:18.494Z,102444.98
2022-10-10T02:02:54.224Z,102448.23
2022-10-10T02:04:30.041Z,102452.89
2022-10-10T02:05:54.970Z,102452.56
2022-10-10T02:07:14.999Z,102453.85
2022-10-10T02:08:36.010Z,102459.30
2022-10-10T02:09:42.872Z,102462.80
2022-10-10T02:10:53.194Z,102459.69
2022-10-10T02:11:59.715Z,102457.36
2022-10-10T02:13:05.210Z,102458.36
2022-10-10T02:14:31.797Z,102461.49
2022-10-10T02:15:43.512Z,102462.69
2022-10-10T02:16:50.079Z,102464.79
2022-10-10T02:17:56.497Z,102462.98
2022-10-10T02:19:00.225Z,102462.81
2022-10-10T02:20:07.923Z,102461.52
2022-10-10T02:21:13.013Z,102464.30
2022-10-10T02:22:17.252Z,102465.48
2022-10-10T02:23:22.286Z,102466.06
2022-10-10T02:24:25.466Z,102470.39
2022-10-10T02:25:32.989Z,102468.23
2022-10-10T02:26:37.335Z,102463.65
2022-10-10T02:27:48.552Z,102462.20
2022-10-10T02:29:01.121Z,102461.69
2022-10-10T02:30:05.726Z,102466.35
2022-10-10T02:32:54.922Z,102459.68
2022-10-10T02:34:06.425Z,102459.08
2022-10-10T02:35:24.561Z,102461.39
2022-10-10T02:36:28.976Z,102459.55
2022-10-10T02:37:33.174Z,102460.73
2022-10-10T02:38:36.705Z,102459.75
2022-10-10T02:39:53.847Z,102460.38
2022-10-10T02:41:03.959Z,102459.41
2022-10-10T02:42:08.792Z,102462.35
2022-10-10T02:43:14.389Z,102462.33
2022-10-10T02:44:18.166Z,102462.84
2022-10-10T02:45:22.335Z,102464.67
2022-10-10T02:46:25.353Z,102464.31
2022-10-10T02:47:28.447Z,102466.91
2022-10-10T02:48:31.453Z,102463.91
2022-10-10T02:49:35.295Z,102460.52
2022-10-10T02:50:38.587Z,102458.95
2022-10-10T02:51:41.598Z,102459.52
2022-10-10T02:52:44.491Z,102457.08
2022-10-10T02:53:47.546Z,102455.92
2022-10-10T02:54:50.509Z,102454.19
2022-10-10T02:55:53.617Z,102455.67
2022-10-10T02:56:56.695Z,102461.20
2022-10-10T02:57:59.607Z,102456.88
2022-10-10T02:59:02.517Z,102451.75
2022-10-10T03:00:06.619Z,102452.36
2022-10-10T03:01:10.678Z,102454.38
2022-10-10T03:02:14.696Z,102454.05
2022-10-10T03:03:17.696Z,102452.58
2022-10-10T03:04:20.635Z,102453.63
2022-10-10T03:05:23.784Z,102452.66
2022-10-10T03:06:26.879Z,102454.70
2022-10-10T03:07:29.803Z,102455.70
2022-10-10T03:08:32.911Z,102454.94
2022-10-10T03:09:35.945Z,102455.78
2022-10-10T03:10:39.120Z,102455.19
2022-10-10T03:11:42.368Z,102450.06
2022-10-10T03:12:45.303Z,102450.84
2022-10-10T03:13:48.247Z,102447.56
2022-10-10T03:14:51.263Z,102446.34
2022-10-10T03:15:54.656Z,102445.20
2022-10-10T03:16:58.025Z,102446.13
2022-10-10T03:18:01.119Z,102444.36
2022-10-10T03:19:04.307Z,102447.75
2022-10-10T03:20:08.362Z,102446.60
2022-10-10T03:21:11.618Z,102444.30
2022-10-10T03:22:14.619Z,102445.56
2022-10-10T03:23:17.592Z,102447.54
2022-10-10T03:24:20.884Z,102446.00
2022-10-10T03:25:23.816Z,102439.42
2022-10-10T03:26:27.210Z,102442.70
2022-10-10T03:27:30.330Z,102442.70
2022-10-10T03:28:33.435Z,102437.80
2022-10-10T03:29:36.539Z,102442.52
2022-10-10T03:30:40.086Z,102439.57
2022-10-10T03:31:43.078Z,102441.64
2022-10-10T03:32:46.275Z,102438.17
2022-10-10T03:33:49.341Z,102442.45
2022-10-10T03:34:52.241Z,102440.88
2022-10-10T03:35:55.365Z,102439.61
2022-10-10T03:36:58.495Z,102438.48
2022-10-10T03:38:02.173Z,102438.09
2022-10-10T03:39:05.450Z,102436.48
2022-10-10T03:40:09.248Z,102438.21
2022-10-10T03:41:12.382Z,102436.95
2022-10-10T03:42:15.269Z,102433.45
2022-10-10T03:43:18.251Z,102437.95
2022-10-10T03:44:21.133Z,102438.89
2022-10-10T03:45:24.628Z,102439.61
2022-10-10T03:46:27.941Z,102436.40
2022-10-10T03:47:31.123Z,102435.29
2022-10-10T03:48:34.263Z,102435.11
2022-10-10T03:49:37.212Z,102439.15
2022-10-10T03:50:40.417Z,102435.85
2022-10-10T03:51:43.476Z,102437.12
2022-10-10T03:52:46.468Z,102435.10
2022-10-10T03:53:49.649Z,102436.15
2022-10-10T03:54:52.647Z,102438.33
2022-10-10T03:55:55.738Z,102437.17
2022-10-10T03:56:58.746Z,102436.39
2022-10-10T03:58:01.943Z,102438.35
2022-10-10T03:59:06.284Z,102437.01
2022-10-10T04:00:29.284Z,102435.22
2022-10-10T04:01:33.844Z,102432.66
2022-10-10T04:02:37.047Z,102433.67
2022-10-10T04:03:40.855Z,102431.52
2022-10-10T04:04:44.307Z,102430.38
2022-10-10T04:05:47.292Z,102434.04
2022-10-10T04:06:50.216Z,102440.19
2022-10-10T04:07:53.234Z,102438.27
2022-10-10T04:08:56.421Z,102438.77
2022-10-10T04:09:59.650Z,102437.05
2022-10-10T04:11:02.662Z,102436.89
2022-10-10T04:12:05.682Z,102437.93
2022-10-10T04:13:08.837Z,102436.84
2022-10-10T04:14:11.878Z,102437.86
2022-10-10T04:15:14.954Z,102437.34
2022-10-10T04:16:17.857Z,102439.92
2022-10-10T04:17:20.920Z,102442.95
2022-10-10T04:18:24.480Z,102442.55
2022-10-10T04:19:27.484Z,102442.75
2022-10-10T04:20:30.577Z,102442.13
2022-10-10T04:21:34.038Z,102440.20
2022-10-10T04:22:37.118Z,102441.16
2022-10-10T04:23:41.341Z,102440.25
2022-10-10T04:24:44.355Z,102442.55
2022-10-10T04:25:51.411Z,102442.81
2022-10-10T04:26:54.439Z,102436.98
2022-10-10T04:28:01.031Z,102439.23
2022-10-10T04:29:04.643Z,102439.29
2022-10-10T04:30:08.061Z,102439.84
2022-10-10T04:31:11.759Z,102439.02
2022-10-10T04:32:14.708Z,102438.58
2022-10-10T04:33:17.862Z,102439.83
2022-10-10T04:34:20.860Z,102439.72
2022-10-10T04:35:24.076Z,102442.35
2022-10-10T04:36:27.207Z,102443.73
2022-10-10T04:37:30.250Z,102440.48
2022-10-10T04:38:33.358Z,102441.77
2022-10-10T04:39:36.321Z,102438.84
2022-10-10T04:40:39.354Z,102439.80
2022-10-10T04:41:43.147Z,102438.89
2022-10-10T04:42:46.069Z,102439.68
2022-10-10T04:43:49.101Z,102439.83
2022-10-10T04:44:52.028Z,102434.94
2022-10-10T04:45:57.563Z,102436.57
2022-10-10T04:47:00.849Z,102432.54
2022-10-10T04:48:03.878Z,102432.60
2022-10-10T04:49:06.841Z,102427.77
2022-10-10T04:50:10.009Z,102430.69
2022-10-10T04:51:13.121Z,102429.02
2022-10-10T04:52:16.336Z,102429.52
2022-10-10T04:53:19.384Z,102425.23
2022-10-10T04:54:22.501Z,102426.18
2022-10-10T04:55:25.480Z,102423.79
2022-10-10T04:56:28.483Z,102423.42
2022-10-10T04:57:31.664Z,102417.98
2022-10-10T04:58:34.750Z,102417.60
2022-10-10T04:59:37.740Z,102410.92
2022-10-10T05:00:41.321Z,102412.02
2022-10-10T05:01:44.498Z,102409.54
2022-10-10T05:02:47.800Z,102410.46
2022-10-10T05:03:50.831Z,102409.98
2022-10-10T05:04:53.736Z,102413.42
2022-10-10T05:05:56.680Z,102415.89
2022-10-10T05:06:59.944Z,102415.60
2022-10-10T05:08:03.124Z,102417.38
2022-10-10T05:09:06.074Z,102416.09
2022-10-10T05:10:09.781Z,102415.93
2022-10-10T05:11:12.685Z,102411.89
2022-10-10T05:12:15.863Z,102413.37
2022-10-10T05:13:19.057Z,102409.02
2022-10-10T05:14:21.985Z,102408.21
2022-10-10T05:15:24.982Z,102404.98
2022-10-10T05:16:27.986Z,102406.70
2022-10-10T05:17:31.059Z,102404.77
2022-10-10T05:18:37.426Z,102404.86
2022-10-10T05:19:40.507Z,102401.60
2022-10-10T05:20:47.556Z,102402.94
2022-10-10T05:21:50.478Z,102402.96
2022-10-10T05:22:53.997Z,102400.56
2022-10-10T05:23:57.204Z,102399.80
2022-10-10T05:25:00.496Z,102402.23
2022-10-10T05:26:04.553Z,102404.00
2022-10-10T05:27:07.571Z,102402.70
2022-10-10T05:28:11.151Z,102407.50
2022-10-10T05:29:14.543Z,102406.20
2022-10-10T05:30:17.645Z,102406.65
2022-10-10T05:31:20.804Z,102403.56
2022-10-10T05:32:23.988Z,102405.84
2022-10-10T05:33:27.086Z,102410.75
2022-10-10T05:34:30.148Z,102407.89
2022-10-10T05:35:33.481Z,102406.02
2022-10-10T05:36:36.522Z,102404.10
2022-10-10T05:37:39.496Z,102401.67
2022-10-10T05:38:42.803Z,102404.37
2022-10-10T05:39:46.161Z,102398.93
2022-10-10T05:40:49.131Z,102401.01
2022-10-10T05:41:52.223Z,102402.23
2022-10-10T05:42:55.226Z,102401.39
2022-10-10T05:43:58.298Z,102401.27
2022-10-10T05:45:01.360Z,102402.00
2022-10-10T05:46:05.023Z,102402.80
2022-10-10T05:47:08.445Z,102398.92
2022-10-10T05:48:11.343Z,102401.92
2022-10-10T05:49:14.507Z,102400.67
2022-10-10T05:50:41.787Z,102399.58
2022-10-10T05:51:44.728Z,102398.91
2022-10-10T05:52:47.943Z,102399.06
2022-10-10T05:53:51.065Z,102398.86
2022-10-10T05:54:54.123Z,102401.36
2022-10-10T05:55:57.549Z,102400.17
2022-10-10T05:57:00.667Z,102402.65
2022-10-10T05:58:03.934Z,102400.73
2022-10-10T05:59:06.967Z,102399.56
2022-10-10T06:00:10.514Z,102399.58
2022-10-10T06:01:13.825Z,102392.89
2022-10-10T06:02:16.884Z,102392.05
2022-10-10T06:03:20.104Z,102385.88
2022-10-10T06:04:23.543Z,102385.27
2022-10-10T06:05:26.791Z,102387.83
2022-10-10T06:06:30.236Z,102387.47
2022-10-10T06:07:52.330Z,102386.36
2022-10-10T06:08:56.420Z,102382.48
2022-10-10T06:09:59.361Z,102386.13
2022-10-10T06:11:11.357Z,102382.73
2022-10-10T06:12:15.038Z,102379.91
2022-10-10T06:13:24.044Z,102375.79
2022-10-10T06:14:27.674Z,102374.90
2022-10-10T06:15:30.999Z,102372.67
2022-10-10T06:16:35.142Z,102374.20
2022-10-10T06:17:38.260Z,102377.61
2022-10-10T06:18:41.247Z,102377.77
2022-10-10T06:19:44.620Z,102376.48
2022-10-10T06:20:47.609Z,102377.09
2022-10-10T06:21:50.607Z,102375.77
2022-10-10T06:22:53.838Z,102376.40
2022-10-10T06:23:57.236Z,102380.89
2022-10-10T06:25:00.301Z,102374.27
2022-10-10T06:26:04.385Z,102375.02
2022-10-10T06:27:07.506Z,102378.50
2022-10-10T06:28:11.233Z,102374.98
2022-10-10T06:29:14.366Z,102375.09
2022-10-10T06:30:17.352Z,102375.98
2022-10-10T06:31:20.486Z,102374.80
2022-10-10T06:32:23.462Z,102375.24
2022-10-10T06:33:27.171Z,102374.44
2022-10-10T06:34:30.177Z,102373.55
2022-10-10T06:35:33.192Z,102371.34
2022-10-10T06:36:36.175Z,102373.05
2022-10-10T06:37:39.404Z,102369.00
2022-10-10T06:38:45.225Z,102372.52
2022-10-10T06:39:48.420Z,102369.16
2022-10-10T06:40:51.342Z,102366.83
2022-10-10T06:41:54.402Z,102365.61
2022-10-10T06:42:57.349Z,102367.65
2022-10-10T06:44:00.445Z,102367.84
2022-10-10T06:45:03.961Z,102367.28
2022-10-10T06:46:07.789Z,102367.97
2022-10-10T06:47:12.829Z,102370.31
2022-10-10T06:48:15.908Z,102369.04
2022-10-10T06:49:19.148Z,102365.25
2022-10-10T06:50:22.419Z,102369.61
2022-10-10T06:51:26.040Z,102371.02
2022-10-10T06:52:29.070Z,102363.11
2022-10-10T06:53:32.721Z,102361.36
2022-10-10T06:54:36.609Z,102360.31
2022-10-10T06:55:47.014Z,102356.07
2022-10-10T06:56:50.030Z,102358.92
2022-10-10T06:57:53.848Z,102357.44
2022-10-10T06:58:57.068Z,102358.45
2022-10-10T07:00:00.161Z,102352.71
2022-10-10T07:01:04.717Z,102352.80
2022-10-10T07:02:07.756Z,102348.57
2022-10-10T07:03:12.763Z,102349.77
2022-10-10T07:04:15.798Z,102348.27
2022-10-10T07:05:19.134Z,102347.54
2022-10-10T07:06:22.478Z,102347.41
2022-10-10T07:07:25.687Z,102345.96
2022-10-10T07:08:29.777Z,102347.20
2022-10-10T07:09:32.829Z,102345.91
2022-10-10T07:10:36.848Z,102346.14
2022-10-10T07:11:45.255Z,102342.48
2022-10-10T07:12:48.600Z,102342.15
2022-10-10T07:13:53.737Z,102343.48
2022-10-10T07:14:56.836Z,102341.69
2022-10-10T07:16:00.369Z,102339.73
2022-10-10T07:17:03.471Z,102336.34
2022-10-10T07:18:06.861Z,102338.67
2022-10-10T07:19:12.999Z,102336.94
2022-10-10T07:20:16.187Z,102339.39
2022-10-10T07:21:19.684Z,102337.08
2022-10-10T07:22:22.689Z,102338.81
2022-10-10T07:23:26.411Z,102339.55
2022-10-10T07:24:29.317Z,102338.52
2022-10-10T07:25:32.507Z,102338.39
2022-10-10T07:26:38.317Z,102335.21
2022-10-10T07:27:41.599Z,102332.40
2022-10-10T07:28:45.215Z,102335.90
2022-10-10T07:29:48.304Z,102335.09
2022-10-10T07:30:51.323Z,102334.92
2022-10-10T07:31:54.313Z,102331.77
2022-10-10T07:32:57.339Z,102332.77
2022-10-10T07:34:00.332Z,102332.23
2022-10-10T07:35:03.560Z,102332.42
2022-10-10T07:36:07.704Z,102327.73
2022-10-10T07:37:10.896Z,102329.30
2022-10-10T07:38:14.061Z,102323.89
2022-10-10T07:39:21.433Z,102329.09
2022-10-10T07:40:24.833Z,102328.87
2022-10-10T07:41:27.886Z,102325.55
2022-10-10T07:42:30.985Z,102326.14
2022-10-10T07:43:34.034Z,102326.72
2022-10-10T07:44:37.019Z,102325.28
2022-10-10T07:45:39.985Z,102321.11
2022-10-10T07:46:43.227Z,102323.66
2022-10-10T07:47:46.520Z,102326.69
2022-10-10T07:48:49.876Z,102326.61
2022-10-10T07:49:53.097Z,102322.28
2022-10-10T07:50:56.035Z,102320.05
2022-10-10T07:52:01.461Z,102323.07
2022-10-10T07:53:06.197Z,102320.52
2022-10-10T07:54:10.086Z,102317.41
2022-10-10T07:55:13.109Z,102319.63
2022-10-10T07:56:35.069Z,102317.44
2022-10-10T07:57:38.257Z,102318.08
2022-10-10T07:58:41.384Z,102313.90
2022-10-10T07:59:45.813Z,102315.42
2022-10-10T08:00:48.937Z,102315.68
2022-10-10T08:01:52.127Z,102311.11
2022-10-10T08:02:55.350Z,102303.17
2022-10-10T08:03:58.965Z,102309.73
2022-10-10T08:05:02.023Z,102302.64
2022-10-10T08:06:07.634Z,102303.02
2022-10-10T08:07:10.692Z,102312.99
2022-10-10T08:08:13.666Z,102306.25
2022-10-10T08:09:17.055Z,102300.96
2022-10-10T08:10:20.749Z,102306.83
2022-10-10T08:11:23.825Z,102297.01
2022-10-10T08:12:26.917Z,102295.01
2022-10-10T08:13:30.203Z,102297.29
2022-10-10T08:14:33.347Z,102291.96
2022-10-10T08:15:39.554Z,102293.70
2022-10-10T08:16:42.581Z,102292.30
2022-10-10T08:17:45.660Z,102287.11
2022-10-10T08:18:48.999Z,102286.34
2022-10-10T08:19:52.138Z,102289.33
2022-10-10T08:20:59.728Z,102286.73
2022-10-10T08:22:02.855Z,102280.56
2022-10-10T08:23:05.846Z,102282.48
2022-10-10T08:24:08.913Z,102280.19
2022-10-10T08:25:12.104Z,102282.70
2022-10-10T08:26:17.296Z,102284.71
2022-10-10T08:27:20.992Z,102282.22
2022-10-10T08:28:24.075Z,102282.52
2022-10-10T08:29:27.239Z,102279.10
2022-10-10T08:30:30.403Z,102265.42
2022-10-10T08:31:33.322Z,102269.39
2022-10-10T08:32:36.514Z,102273.44
2022-10-10T08:33:42.430Z,102264.27
2022-10-10T08:34:45.667Z,102264.50
2022-10-10T08:35:49.168Z,102259.91
2022-10-10T08:36:52.234Z,102267.61
2022-10-10T08:37:55.264Z,102260.91
2022-10-10T08:39:00.978Z,102257.42
2022-10-10T08:40:04.724Z,102256.96
2022-10-10T08:41:35.260Z,102254.89
2022-10-10T08:42:47.850Z,102255.36
2022-10-10T08:43:55.509Z,102251.52
2022-10-10T08:45:02.848Z,102248.66
2022-10-10T08:46:30.776Z,102244.40
2022-10-10T08:47:47.188Z,102247.07
2022-10-10T08:48:52.550Z,102245.55
2022-10-10T08:50:00.447Z,102240.52
2022-10-10T08:51:09.677Z,102242.75
2022-10-10T08:52:28.068Z,102239.77
2022-10-10T08:53:48.945Z,102234.88
2022-10-10T08:54:58.131Z,102230.42
2022-10-10T08:56:05.067Z,102229.33
2022-10-10T08:57:22.599Z,102223.14
2022-10-10T08:58:33.929Z,102219.67
2022-10-10T08:59:40.789Z,102226.40
2022-10-10T09:00:49.399Z,102223.87
2022-10-10T09:02:20.116Z,102225.20
2022-10-10T09:03:30.521Z,102223.67
2022-10-10T09:04:34.247Z,102215.30
2022-10-10T09:05:48.278Z,102212.48
2022-10-10T09:07:12.277Z,102213.42
2022-10-10T09:08:39.496Z,102210.67
2022-10-10T09:10:03.464Z,102210.46
2022-10-10T09:11:35.684Z,102204.30
2022-10-10T09:13:07.892Z,102202.29
2022-10-10T09:14:26.109Z,102197.98
2022-10-10T09:15:55.823Z,102200.16
2022-10-10T09:17:14.217Z,102196.47
2022-10-10T09:18:35.567Z,102198.71
2022-10-10T09:19:53.279Z,102201.73
2022-10-10T09:21:05.287Z,102202.56
2022-10-10T09:22:16.654Z,102199.18
2022-10-10T09:23:30.402Z,102193.95
2022-10-10T09:24:43.793Z,102189.68
2022-10-10T09:25:56.345Z,102200.71
2022-10-10T09:27:04.773Z,102194.97
2022-10-10T09:28:25.249Z,102188.09
2022-10-10T09:29:35.238Z,102185.83
2022-10-10T09:30:44.382Z,102184.00
2022-10-10T09:31:52.391Z,102190.86
2022-10-10T09:33:30.570Z,102183.99
2022-10-10T09:34:43.637Z,102184.48
2022-10-10T09:35:48.528Z,102180.68
2022-10-10T09:36:54.179Z,102177.34
2022-10-10T09:38:30.182Z,102170.52
2022-10-10T09:39:37.252Z,102169.30
2022-10-10T09:40:48.419Z,102168.09
2022-10-10T09:41:51.380Z,102168.27
2022-10-10T09:42:56.213Z,102164.27
2022-10-10T09:44:02.576Z,102161.75
2022-10-10T09:45:27.466Z,102161.23
2022-10-10T09:46:30.705Z,102155.23
2022-10-10T09:47:33.662Z,102152.36
2022-10-10T09:48:39.196Z,102151.05
2022-10-10T09:49:43.908Z,102146.13
2022-10-10T09:50:47.015Z,102150.93
2022-10-10T09:51:50.583Z,102156.92
2022-10-10T09:52:53.882Z,102143.58
2022-10-10T09:53:56.928Z,102141.79
2022-10-10T09:55:06.738Z,102142.14
2022-10-10T09:56:18.488Z,102141.71
2022-10-10T09:57:26.133Z,102138.28
2022-10-10T09:58:42.597Z,102133.06
2022-10-10T09:59:46.660Z,102131.17
2022-10-10T10:00:50.478Z,102127.66
2022-10-10T10:02:03.967Z,102128.27
2022-10-10T10:03:16.466Z,102116.77
2022-10-10T10:04:28.215Z,102116.41
2022-10-10T10:05:33.410Z,102125.62
2022-10-10T10:06:37.681Z,102123.11
2022-10-10T10:07:48.326Z,102116.35
2022-10-10T10:08:53.061Z,102114.67
2022-10-10T10:10:02.198Z,102110.77
2022-10-10T10:11:18.866Z,102113.80
2022-10-10T10:12:48.165Z,102107.25
2022-10-10T10:13:55.734Z,102105.73
2022-10-10T10:15:16.987Z,102112.16
2022-10-10T10:16:19.993Z,102105.80
2022-10-10T10:17:24.571Z,102101.08
2022-10-10T10:18:29.502Z,102105.33
2022-10-10T10:19:41.651Z,102096.98
2022-10-10T10:20:48.339Z,102100.80
2022-10-10T10:21:52.609Z,102100.52
2022-10-10T10:22:56.349Z,102086.77
2022-10-10T10:24:21.492Z,102094.90
2022-10-10T10:25:38.554Z,102091.35
2022-10-10T10:26:41.702Z,102088.76
2022-10-10T10:27:44.618Z,102085.52
2022-10-10T10:28:49.505Z,102085.15
2022-10-10T10:29:55.360Z,102081.80
2022-10-10T10:30:59.347Z,102074.08
2022-10-10T10:32:18.047Z,102071.54
2022-10-10T10:33:42.644Z,102065.80
2022-10-10T10:35:04.113Z,102069.67
2022-10-10T10:36:51.428Z,102058.54
2022-10-10T10:38:17.283Z,102059.15
2022-10-10T10:39:35.462Z,102055.23
2022-10-10T10:40:42.959Z,102054.23
2022-10-10T10:42:10.841Z,102056.95
2022-10-10T10:43:37.968Z,102057.88
2022-10-10T10:44:51.517Z,102052.55
2022-10-10T10:46:22.261Z,102051.07
2022-10-10T10:47:48.191Z,102049.84
2022-10-10T10:49:18.755Z,102041.18
2022-10-10T10:50:27.831Z,102036.05
2022-10-10T10:51:55.536Z,102030.50
2022-10-10T10:53:30.657Z,102035.83
2022-10-10T10:55:11.127Z,102030.70
2022-10-10T10:56:23.834Z,102022.39
2022-10-10T10:57:39.341Z,102022.21
2022-10-10T10:59:41.797Z,102020.42
2022-10-10T11:01:22.598Z,102014.20
2022-10-10T11:02:59.703Z,102007.95
2022-10-10T11:05:21.323Z,102000.23
2022-10-10T11:05:58.701Z,101990.86
2022-10-10T11:07:34.376Z,101987.88
2022-10-10T11:08:56.958Z,101989.48
2022-10-10T11:10:30.293Z,101989.37
2022-10-10T11:11:33.750Z,101989.45
2022-10-10T11:12:55.442Z,101983.34
2022-10-10T11:14:23.250Z,101981.64
2022-10-10T11:15:37.559Z,101985.47
2022-10-10T11:16:53.426Z,101986.88
2022-10-10T11:18:08.750Z,101989.55
2022-10-10T11:19:11.870Z,101979.86
2022-10-10T11:20:32.598Z,101978.85
2022-10-10T11:21:42.830Z,101975.80
2022-10-10T11:22:52.821Z,101973.53
2022-10-10T11:24:06.278Z,101968.21
2022-10-10T11:25:23.884Z,101970.27
2022-10-10T11:26:33.028Z,101963.28
2022-10-10T11:27:44.894Z,101960.48
2022-10-10T11:28:54.022Z,101966.95
2022-10-10T11:30:08.286Z,101961.98
2022-10-10T11:31:21.163Z,101957.20
2022-10-10T11:32:33.987Z,101951.95
2022-10-10T11:33:42.676Z,101950.92
2022-10-10T11:35:16.232Z,101947.82
2022-10-10T11:36:23.810Z,101943.34
2022-10-10T11:37:31.138Z,101939.80
2022-10-10T11:38:45.085Z,101940.89
2022-10-10T11:39:55.755Z,101935.92
2022-10-10T11:41:07.851Z,101936.98
2022-10-10T11:42:22.702Z,101934.88
2022-10-10T11:43:57.921Z,101936.59
2022-10-10T11:45:14.603Z,101935.68
2022-10-10T11:46:26.755Z,101938.26
2022-10-10T11:47:50.968Z,101929.88
2022-10-10T11:49:24.091Z,101925.52
2022-10-10T11:50:31.128Z,101922.02
2022-10-10T11:51:42.434Z,101922.52
2022-10-10T11:53:02.780Z,101921.52
2022-10-10T11:54:09.986Z,101917.67
2022-10-10T11:55:22.560Z,101919.98
2022-10-10T11:56:41.358Z,101919.54
2022-10-10T11:57:57.881Z,101923.91
2022-10-10T11:59:22.919Z,101915.82
2022-10-10T12:00:29.170Z,101916.35
2022-10-10T12:01:42.220Z,101916.73
2022-10-10T12:02:46.807Z,101916.04
2022-10-10T12:03:52.244Z,101915.11
2022-10-10T12:04:55.565Z,101917.09
2022-10-10T12:06:23.648Z,101915.56
2022-10-10T12:07:33.076Z,101913.66
2022-10-10T12:08:42.465Z,101914.63
2022-10-10T12:09:50.732Z,101905.16
2022-10-10T12:11:06.669Z,101910.45
2022-10-10T12:12:19.901Z,101901.90
2022-10-10T12:13:34.262Z,101897.66
2022-10-10T12:14:41.429Z,101895.51
2022-10-10T12:15:49.869Z,101900.30
2022-10-10T12:16:54.108Z,101894.80
2022-10-10T12:17:57.862Z,101893.89
2022-10-10T12:19:24.591Z,101888.55
2022-10-10T12:20:27.682Z,101885.55
2022-10-10T12:21:31.974Z,101886.14
2022-10-10T12:22:35.157Z,101885.05
2022-10-10T12:23:38.936Z,101888.51
2022-10-10T12:25:20.601Z,101883.02
2022-10-10T12:26:24.448Z,101884.40
2022-10-10T12:27:41.688Z,101881.11
2022-10-10T12:29:02.927Z,101879.41
2022-10-10T12:30:09.377Z,101873.79
2022-10-10T12:31:12.363Z,101864.92
2022-10-10T12:32:15.325Z,101872.09
2022-10-10T12:33:45.600Z,101866.33
2022-10-10T12:34:48.692Z,101858.27
2022-10-10T12:35:51.759Z,101856.08
2022-10-10T12:37:09.360Z,101845.90
2022-10-10T12:38:20.108Z,101844.88
2022-10-10T12:39:26.007Z,101845.13
2022-10-10T12:40:29.177Z,101839.80
2022-10-10T12:41:47.379Z,101839.89
2022-10-10T12:42:51.557Z,101834.45
2022-10-10T12:44:19.111Z,101835.34
2022-10-10T12:45:33.975Z,101833.67
2022-10-10T12:46:37.391Z,101834.76
2022-10-10T12:48:04.384Z,101826.77
2022-10-10T12:49:26.352Z,101822.15
2022-10-10T12:50:32.551Z,101818.15
2022-10-10T12:51:44.113Z,101814.02
2022-10-10T12:52:55.762Z,101815.48
2022-10-10T12:54:01.824Z,101811.93
2022-10-10T12:55:21.728Z,101810.41
2022-10-10T12:56:51.336Z,101810.59
2022-10-10T12:57:57.996Z,101803.71
2022-10-10T12:59:01.249Z,101808.14
2022-10-10T13:00:19.021Z,101808.11
2022-10-10T13:01:27.022Z,101797.60
2022-10-10T13:02:30.307Z,101797.88